Time;durP1;ratioP1;P1;durP2;ratioP2;P2;SDS_P1;SDS_P2;PMS_P1;PMS_P2;Temp;Humidity;BMP_temperature;BMP_pressure;BME280_temperature;BME280_humidity;BME280_pressure;Samples;Min_cycle;Max_cycle;Signal;HPM_P1;HPM_P2
2022/05/04 00:01:06;;;;;;;;;;;;;;;3.23;34.18;96837.00;6373901;27;19926;-64
2022/05/04 00:04:07;;;;;;;;;;;;;;;3.22;34.08;96830.13;6373508;27;19933;-64
2022/05/04 00:07:11;;;;;;;;;;;;;;;3.17;33.83;96832.03;6373740;27;19923;-64
2022/05/04 00:10:14;;;;;;;;;;;;;;;3.05;33.94;96823.78;6373389;27;19924;-63
2022/05/04 00:13:18;;;;;;;;;;;;;;;2.99;33.82;96828.34;6373898;27;19923;-64
2022/05/04 00:16:19;;;;;;;;;;;;;;;2.88;34.13;96821.78;6373047;27;20422;-63
2022/05/04 00:19:25;;;;;;;;;;;;;;;2.78;33.64;96820.41;6355955;27;19923;-64
2022/05/04 00:22:26;;;;;;;;;;;;;;;2.66;34.15;96818.22;6373307;27;19923;-64
2022/05/04 00:25:27;;;;;;;;;;;;;;;2.58;33.72;96818.50;6372952;27;19924;-63
2022/05/04 00:28:31;;;;;;;;;;;;;;;2.53;33.73;96819.56;6373426;27;19927;-63
2022/05/04 00:31:31;;;;;;;;;;;;;;;2.46;34.00;96818.91;6373197;27;19957;-64
2022/05/04 00:34:33;;;;;;;;;;;;;;;2.40;33.94;96819.13;6373302;27;19927;-63
2022/05/04 00:37:34;;;;;;;;;;;;;;;2.34;34.76;96814.97;6372591;27;19946;-64
2022/05/04 00:40:38;;;;;;;;;;;;;;;2.30;34.54;96812.56;6373450;27;19919;-64
2022/05/04 00:43:41;;;;;;;;;;;;;;;2.28;34.50;96816.94;6372178;27;19927;-64
2022/05/04 00:46:44;;;;;;;;;;;;;;;2.26;34.32;96811.78;6373118;27;20025;-64
2022/05/04 00:49:48;;;;;;;;;;;;;;;2.29;34.56;96809.06;6354093;27;19951;-64
2022/05/04 00:52:50;;;;;;;;;;;;;;;2.34;34.51;96814.13;6372117;27;19988;-64
2022/05/04 00:55:53;;;;;;;;;;;;;;;2.40;33.81;96813.91;6372993;27;19923;-64
2022/05/04 00:58:54;;;;;;;;;;;;;;;2.45;33.80;96801.63;6372586;27;20290;-64
2022/05/04 01:01:56;;;;;;;;;;;;;;;2.48;33.83;96806.72;6372055;27;19920;-64
2022/05/04 01:04:57;;;;;;;;;;;;;;;2.53;33.58;96809.19;6371629;27;19930;-63
2022/05/04 01:08:01;;;;;;;;;;;;;;;2.57;33.59;96811.59;6371961;27;19923;-63
2022/05/04 01:11:01;;;;;;;;;;;;;;;2.63;33.85;96806.22;6372159;27;20017;-64
2022/05/04 01:14:08;;;;;;;;;;;;;;;2.73;33.22;96816.28;6372547;27;20031;-63
2022/05/04 01:17:09;;;;;;;;;;;;;;;2.80;33.86;96807.34;6371251;27;19923;-64
2022/05/04 01:20:16;;;;;;;;;;;;;;;2.89;33.32;96805.31;6372556;27;19923;-64
2022/05/04 01:23:18;;;;;;;;;;;;;;;3.04;33.20;96816.06;6371813;27;19953;-64
2022/05/04 01:26:22;;;;;;;;;;;;;;;3.14;33.70;96804.41;6372352;27;19923;-64
2022/05/04 01:29:25;;;;;;;;;;;;;;;3.21;32.83;96812.84;6371646;27;19931;-63
2022/05/04 01:32:29;;;;;;;;;;;;;;;3.29;33.54;96811.66;6371168;27;20015;-64
2022/05/04 01:35:32;;;;;;;;;;;;;;;3.36;33.33;96815.72;6371701;27;20408;-64
2022/05/04 01:38:33;;;;;;;;;;;;;;;3.42;32.68;96808.59;6371196;27;19927;-63
2022/05/04 01:44:56;;;;;;;;;;;;;;;3.51;33.28;96803.91;6372068;27;19923;-64
2022/05/04 01:48:00;;;;;;;;;;;;;;;3.54;33.69;96811.59;6371942;27;19957;-63
2022/05/04 01:51:01;;;;;;;;;;;;;;;3.62;32.92;96813.03;6371323;27;19923;-63
2022/05/04 01:54:02;;;;;;;;;;;;;;;3.69;33.16;96814.50;6370777;27;19923;-64
2022/05/04 01:57:05;;;;;;;;;;;;;;;3.76;33.11;96806.38;6371837;27;19923;-64
2022/05/04 02:00:07;;;;;;;;;;;;;;;3.84;33.18;96808.69;6370844;27;20323;-64
2022/05/04 02:03:08;;;;;;;;;;;;;;;3.95;32.87;96816.09;6371137;27;19934;-63
2022/05/04 02:06:09;;;;;;;;;;;;;;;4.06;32.45;96816.53;6371084;27;20409;-65
2022/05/04 02:09:14;;;;;;;;;;;;;;;4.20;32.84;96813.38;6371759;28;19923;-63
2022/05/04 02:12:15;;;;;;;;;;;;;;;4.31;32.92;96811.19;6371262;28;19965;-65
2022/05/04 02:15:21;;;;;;;;;;;;;;;4.41;32.92;96809.88;6370608;28;19923;-64
2022/05/04 02:18:24;;;;;;;;;;;;;;;4.50;32.38;96809.50;6371283;28;19923;-64
2022/05/04 02:21:27;;;;;;;;;;;;;;;4.62;32.70;96807.31;6371469;28;19919;-64
2022/05/04 02:24:29;;;;;;;;;;;;;;;4.70;33.11;96810.44;6370478;28;19923;-64
2022/05/04 02:27:34;;;;;;;;;;;;;;;4.82;32.99;96802.06;6371301;28;19927;-64
2022/05/04 02:30:36;;;;;;;;;;;;;;;4.95;32.78;96811.06;6370743;28;20396;-65
2022/05/04 02:33:39;;;;;;;;;;;;;;;5.13;32.67;96808.56;6371174;28;19939;-64
2022/05/04 02:40:00;;;;;;;;;;;;;;;5.55;33.14;96804.94;6370094;28;20348;-64
2022/05/04 02:43:03;;;;;;;;;;;;;;;5.81;31.90;96801.97;6370307;28;19945;-64
2022/05/04 02:46:15;;;;;;;;;;;;;;;6.18;31.20;96797.63;6370074;28;19927;-64
2022/05/04 02:49:16;;;;;;;;;;;;;;;6.58;31.59;96798.28;6370677;28;19923;-65
2022/05/04 02:52:20;;;;;;;;;;;;;;;7.03;32.20;96798.63;6372271;27;19927;-64
2022/05/04 02:55:23;;;;;;;;;;;;;;;7.48;31.20;96790.13;6374877;27;20068;-64
2022/05/04 02:58:24;;;;;;;;;;;;;;;7.98;30.45;96794.38;6375467;27;19930;-64
2022/05/04 03:04:44;;;;;;;;;;;;;;;8.82;29.26;96787.84;6375943;27;20342;-64
2022/05/04 03:07:46;;;;;;;;;;;;;;;9.11;29.55;96786.09;6375256;27;19929;-64
2022/05/04 03:14:11;;;;;;;;;;;;;;;9.55;28.97;96785.19;6374606;27;19923;-64
2022/05/04 03:17:17;;;;;;;;;;;;;;;9.55;29.01;96779.94;6375569;27;19938;-63
2022/05/04 03:20:18;;;;;;;;;;;;;;;9.44;29.14;96777.97;6374680;27;19930;-64
2022/05/04 03:23:19;;;;;;;;;;;;;;;9.44;29.66;96784.06;6374257;27;20015;-65
2022/05/04 03:26:20;;;;;;;;;;;;;;;9.35;29.85;96778.53;6374714;27;20024;-64
2022/05/04 03:29:23;;;;;;;;;;;;;;;9.31;30.28;96782.25;6374966;27;19930;-65
2022/05/04 03:32:25;;;;;;;;;;;;;;;9.26;30.36;96777.31;6374151;27;19920;-64
2022/05/04 03:35:26;;;;;;;;;;;;;;;9.33;30.40;96775.97;6374864;27;19923;-64
2022/05/04 03:38:27;;;;;;;;;;;;;;;9.48;30.89;96773.34;6356791;27;19930;-64
2022/05/04 03:41:28;;;;;;;;;;;;;;;9.53;30.86;96777.38;6374028;27;19930;-64
2022/05/04 03:44:29;;;;;;;;;;;;;;;9.56;30.50;96765.84;6374766;27;20000;-64
2022/05/04 03:47:30;;;;;;;;;;;;;;;9.62;30.54;96768.06;6373506;27;19934;-64
2022/05/04 03:50:31;;;;;;;;;;;;;;;9.72;30.27;96766.56;6373972;27;19924;-65
2022/05/04 03:53:32;;;;;;;;;;;;;;;9.87;30.28;96767.38;6373766;27;19920;-65
2022/05/04 03:56:34;;;;;;;;;;;;;;;10.05;30.27;96757.50;6373697;27;20296;-64
2022/05/04 03:59:39;;;;;;;;;;;;;;;10.15;30.07;96762.97;6374415;27;19924;-63
2022/05/04 04:02:43;;;;;;;;;;;;;;;10.21;29.97;96768.69;6354993;27;20349;-65
2022/05/04 04:05:45;;;;;;;;;;;;;;;10.47;29.70;96763.53;6373541;27;19923;-64
2022/05/04 04:08:47;;;;;;;;;;;;;;;10.53;29.11;96752.59;6373595;27;20015;-64
2022/05/04 04:11:50;;;;;;;;;;;;;;;10.66;28.59;96758.72;6374255;27;20014;-65
2022/05/04 04:14:51;;;;;;;;;;;;;;;10.75;28.33;96752.84;6373880;27;19976;-65
2022/05/04 04:17:55;;;;;;;;;;;;;;;11.11;27.05;96748.66;6373996;27;19923;-65
2022/05/04 04:24:16;;;;;;;;;;;;;;;11.50;24.46;96746.84;6372776;27;19924;-64
2022/05/04 04:27:17;;;;;;;;;;;;;;;11.90;22.81;96746.66;6373185;27;20418;-65
2022/05/04 04:30:18;;;;;;;;;;;;;;;11.90;22.44;96741.38;6372978;27;19924;-64
2022/05/04 04:33:24;;;;;;;;;;;;;;;11.92;22.15;96742.13;6373314;27;19923;-64
2022/05/04 04:36:25;;;;;;;;;;;;;;;12.19;21.64;96738.41;6354241;27;19952;-64
2022/05/04 04:39:26;;;;;;;;;;;;;;;12.20;21.43;96742.72;6372901;27;19930;-65
2022/05/04 04:42:30;;;;;;;;;;;;;;;12.67;21.34;96741.00;6373272;27;19928;-64
2022/05/04 04:45:31;;;;;;;;;;;;;;;15.98;19.28;96744.84;6372863;27;20382;-64
2022/05/04 04:48:32;;;;;;;;;;;;;;;20.29;15.22;96743.72;6354516;27;20075;-64
2022/05/04 04:51:33;;;;;;;;;;;;;;;23.31;12.57;96744.63;6372253;27;20396;-64
2022/05/04 04:54:38;;;;;;;;;;;;;;;26.08;11.40;96753.41;6372867;27;19927;-65
2022/05/04 04:57:39;;;;;;;;;;;;;;;28.28;10.10;96757.09;6371104;27;20064;-64
2022/05/04 05:00:41;;;;;;;;;;;;;;;28.63;9.02;96754.91;6372378;27;20680;-64
2022/05/04 05:03:42;;;;;;;;;;;;;;;28.45;9.64;96739.41;6372143;27;20376;-64
2022/05/04 05:06:45;;;;;;;;;;;;;;;29.75;9.36;96749.72;6372067;27;20304;-66
2022/05/04 05:09:46;;;;;;;;;;;;;;;31.36;8.30;96741.22;6372867;27;20396;-65
2022/05/04 05:12:50;;;;;;;;;;;;;;;32.26;7.15;96742.72;6372253;27;19923;-65
2022/05/04 05:16:09;;;;;;;;;;;;;;;32.72;7.33;96749.13;6371191;27;19923;-64
2022/05/04 05:19:10;;;;;;;;;;;;;;;34.05;6.86;96752.19;6372663;27;19941;-65
2022/05/04 05:22:11;;;;;;;;;;;;;;;34.71;6.31;96751.41;6372502;27;19923;-64
2022/05/04 05:25:12;;;;;;;;;;;;;;;35.09;6.68;96742.25;6372186;27;20274;-65
2022/05/04 05:28:13;;;;;;;;;;;;;;;36.72;5.73;96741.66;6371675;27;19923;-64
2022/05/04 05:31:16;;;;;;;;;;;;;;;36.81;5.44;96740.06;6372033;27;19938;-64
2022/05/04 05:34:20;;;;;;;;;;;;;;;37.21;4.85;96738.50;6372356;27;19923;-64
2022/05/04 05:37:21;;;;;;;;;;;;;;;36.90;4.51;96732.97;6370935;27;20292;-65
2022/05/04 05:40:24;;;;;;;;;;;;;;;37.41;4.73;96727.53;6371806;27;20009;-64
2022/05/04 05:43:31;;;;;;;;;;;;;;;37.85;4.46;96716.00;6372305;27;20395;-64
2022/05/04 05:46:32;;;;;;;;;;;;;;;37.20;4.74;96720.38;6370538;27;19930;-64
2022/05/04 05:49:38;;;;;;;;;;;;;;;37.58;4.68;96720.97;6371805;27;19923;-64
2022/05/04 05:52:41;;;;;;;;;;;;;;;38.02;4.16;96720.34;6371672;27;19927;-65
2022/05/04 05:55:47;;;;;;;;;;;;;;;38.65;4.33;96717.94;6371577;27;19980;-64
2022/05/04 05:58:51;;;;;;;;;;;;;;;39.35;4.44;96715.03;6371645;27;20376;-64
2022/05/04 06:01:52;;;;;;;;;;;;;;;41.18;4.24;96710.44;6370309;27;19919;-64
2022/05/04 06:04:53;;;;;;;;;;;;;;;42.23;4.06;96701.69;6371237;27;19958;-64
2022/05/04 06:07:54;;;;;;;;;;;;;;;41.40;3.77;96707.84;6370654;27;20406;-65
2022/05/04 06:10:58;;;;;;;;;;;;;;;38.90;3.85;96696.91;6371513;27;20411;-65
2022/05/04 06:13:59;;;;;;;;;;;;;;;37.04;4.49;96681.19;6370713;28;19927;-64
2022/05/04 06:17:02;;;;;;;;;;;;;;;36.18;5.11;96677.09;6371337;27;19923;-64
2022/05/04 06:20:06;;;;;;;;;;;;;;;35.65;4.98;96674.34;6370915;28;20368;-64
2022/05/04 06:23:10;;;;;;;;;;;;;;;34.91;5.26;96680.56;6372024;28;20004;-65
2022/05/04 06:26:14;;;;;;;;;;;;;;;34.66;5.38;96672.13;6373239;27;19923;-64
2022/05/04 06:29:15;;;;;;;;;;;;;;;35.17;5.09;96664.41;6376328;27;19919;-64
2022/05/04 06:35:42;;;;;;;;;;;;;;;38.92;4.21;96656.19;6376494;27;19924;-64
2022/05/04 06:38:43;;;;;;;;;;;;;;;39.86;4.09;96664.16;6376293;27;19924;-64
2022/05/04 06:41:49;;;;;;;;;;;;;;;40.94;2.95;96661.66;6376118;27;19919;-63
2022/05/04 06:44:52;;;;;;;;;;;;;;;40.38;3.27;96665.22;6376119;27;19945;-64
2022/05/04 06:47:56;;;;;;;;;;;;;;;39.59;3.55;96660.00;6376162;27;19919;-64
2022/05/04 06:50:59;;;;;;;;;;;;;;;39.73;3.49;96649.13;6375765;27;20042;-65
2022/05/04 06:54:03;;;;;;;;;;;;;;;40.30;3.60;96638.28;6375589;27;19919;-64
2022/05/04 06:57:07;;;;;;;;;;;;;;;41.45;3.33;96635.97;6375640;27;19923;-64
2022/05/04 07:00:08;;;;;;;;;;;;;;;44.12;2.58;96667.53;6374751;27;20027;-64
2022/05/04 07:03:09;;;;;;;;;;;;;;;43.49;2.19;96649.28;6375564;27;19923;-64
2022/05/04 07:06:13;;;;;;;;;;;;;;;41.52;2.77;96623.72;6375251;27;20039;-65
2022/05/04 07:09:17;;;;;;;;;;;;;;;41.67;2.62;96617.91;6374373;27;19930;-63
2022/05/04 07:12:18;;;;;;;;;;;;;;;41.56;2.60;96616.47;6375764;27;19927;-65
2022/05/04 07:15:24;;;;;;;;;;;;;;;41.62;2.50;96626.31;6375279;27;19967;-64
2022/05/04 07:18:25;;;;;;;;;;;;;;;40.38;3.07;96618.34;6374407;27;20308;-64
2022/05/04 07:21:29;;;;;;;;;;;;;;;40.63;2.86;96621.88;6375239;27;19923;-64
2022/05/04 07:24:34;;;;;;;;;;;;;;;39.57;3.52;96607.16;6375219;27;19927;-64
2022/05/04 07:27:38;;;;;;;;;;;;;;;39.79;3.43;96609.41;6375213;27;19923;-64
2022/05/04 07:30:39;;;;;;;;;;;;;;;38.25;4.16;96593.34;6373939;27;19923;-64
2022/05/04 07:33:40;;;;;;;;;;;;;;;37.69;3.70;96596.31;6374324;27;19966;-65
2022/05/04 07:36:44;;;;;;;;;;;;;;;35.33;4.35;96591.47;6374701;27;20392;-64
2022/05/04 07:43:07;;;;;;;;;;;;;;;31.56;5.87;96570.38;6374746;27;19923;-64
2022/05/04 07:46:10;;;;;;;;;;;;;;;31.31;6.45;96573.34;6374804;27;20299;-64
2022/05/04 07:49:11;;;;;;;;;;;;;;;30.72;6.34;96569.78;6374139;27;20443;-65
2022/05/04 07:52:15;;;;;;;;;;;;;;;29.70;6.98;96563.31;6374676;27;19923;-63
2022/05/04 07:55:17;;;;;;;;;;;;;;;28.20;7.49;96558.81;6373828;27;19955;-65
2022/05/04 07:58:20;;;;;;;;;;;;;;;27.33;8.17;96551.34;6373171;27;19923;-64
2022/05/04 08:04:40;;;;;;;;;;;;;;;29.91;7.01;96545.69;6372908;27;19930;-64
2022/05/04 08:07:47;;;;;;;;;;;;;;;33.03;6.18;96552.38;6374189;27;19930;-64
2022/05/04 08:10:51;;;;;;;;;;;;;;;32.84;5.82;96542.81;6373442;27;19923;-65
2022/05/04 08:13:54;;;;;;;;;;;;;;;33.11;6.09;96544.88;6373022;27;20359;-63
2022/05/04 08:16:55;;;;;;;;;;;;;;;33.88;5.70;96550.22;6373920;27;19923;-64
2022/05/04 08:19:59;;;;;;;;;;;;;;;33.76;5.40;96538.63;6373729;27;19927;-65
2022/05/04 08:23:03;;;;;;;;;;;;;;;33.36;5.28;96534.31;6373968;27;20387;-66
2022/05/04 08:26:04;;;;;;;;;;;;;;;33.32;5.73;96533.19;6372159;27;19924;-64
2022/05/04 08:29:06;;;;;;;;;;;;;;;33.64;5.08;96529.78;6372560;27;19930;-64
2022/05/04 08:32:09;;;;;;;;;;;;;;;32.51;5.54;96528.13;6372831;27;20461;-64
2022/05/04 08:35:12;;;;;;;;;;;;;;;31.02;6.19;96520.78;6372729;27;19923;-64
2022/05/04 08:38:16;;;;;;;;;;;;;;;29.56;6.95;96509.44;6372484;27;19930;-64
2022/05/04 08:41:20;;;;;;;;;;;;;;;29.64;7.32;96510.00;6373604;27;20304;-65
2022/05/04 08:44:22;;;;;;;;;;;;;;;30.61;6.92;96508.97;6373328;27;19919;-64
2022/05/04 08:47:29;;;;;;;;;;;;;;;30.35;7.01;96505.63;6373459;27;19923;-64
2022/05/04 08:50:31;;;;;;;;;;;;;;;31.77;6.08;96507.16;6372782;27;19958;-64
2022/05/04 08:53:33;;;;;;;;;;;;;;;32.68;5.86;96510.94;6372417;27;20380;-64
2022/05/04 08:56:37;;;;;;;;;;;;;;;33.28;5.67;96507.47;6373322;27;20285;-64
2022/05/04 08:59:43;;;;;;;;;;;;;;;35.02;4.99;96520.16;6373087;27;20308;-64
2022/05/04 09:02:44;;;;;;;;;;;;;;;34.53;5.17;96512.94;6372523;27;20284;-64
2022/05/04 09:05:46;;;;;;;;;;;;;;;33.70;5.25;96501.47;6373098;27;19979;-65
2022/05/04 09:08:54;;;;;;;;;;;;;;;32.80;5.81;96525.28;6372120;27;19955;-64
2022/05/04 09:12:01;;;;;;;;;;;;;;;31.97;5.86;96511.38;6372856;27;19930;-64
2022/05/04 09:15:02;;;;;;;;;;;;;;;31.80;6.42;96494.16;6371805;27;19924;-64
2022/05/04 09:18:05;;;;;;;;;;;;;;;32.48;5.88;96497.84;6371587;27;19968;-64
2022/05/04 09:21:20;;;;;;;;;;;;;;;32.28;5.88;96512.72;6372515;27;20422;-64
2022/05/04 09:24:28;;;;;;;;;;;;;;;32.00;6.35;96497.28;6371270;27;19930;-64
2022/05/04 09:27:30;;;;;;;;;;;;;;;32.85;5.93;96495.41;6372408;27;19933;-64
2022/05/04 09:30:33;;;;;;;;;;;;;;;33.24;5.58;96490.81;6372363;27;20400;-65
2022/05/04 09:33:37;;;;;;;;;;;;;;;33.91;5.47;96481.47;6372183;27;19940;-65
2022/05/04 09:46:47;;;;;;;;;;;;;;;34.19;5.42;96472.22;6372179;27;19929;-65
2022/05/04 09:50:00;;;;;;;;;;;;;;;33.70;5.75;96468.72;6371376;27;20296;-64
2022/05/04 09:53:02;;;;;;;;;;;;;;;34.33;5.75;96461.69;6371092;27;20020;-66
2022/05/04 09:56:07;;;;;;;;;;;;;;;35.06;5.26;96461.97;6371791;27;19923;-66
2022/05/04 09:59:09;;;;;;;;;;;;;;;34.70;5.29;96439.03;6371626;27;19930;-65
2022/05/04 10:02:13;;;;;;;;;;;;;;;35.09;5.25;96449.69;6371587;27;20014;-65
2022/05/04 10:05:19;;;;;;;;;;;;;;;35.23;5.05;96453.56;6371355;27;19923;-64
2022/05/04 10:08:22;;;;;;;;;;;;;;;33.94;5.60;96455.59;6371444;27;19930;-64
2022/05/04 10:11:26;;;;;;;;;;;;;;;33.27;5.53;96438.47;6371398;27;19923;-65
2022/05/04 10:14:29;;;;;;;;;;;;;;;32.59;5.88;96437.81;6370489;28;19923;-65
2022/05/04 10:17:35;;;;;;;;;;;;;;;33.15;5.79;96434.22;6371367;28;20424;-65
2022/05/04 10:21:02;;;;;;;;;;;;;;;32.43;5.84;96438.63;6371369;28;19923;-65
2022/05/04 10:24:07;;;;;;;;;;;;;;;32.40;6.40;96441.84;6358829;28;19929;-66
2022/05/04 10:27:16;;;;;;;;;;;;;;;32.11;6.52;96403.03;6371214;28;20406;-65
2022/05/04 10:30:30;;;;;;;;;;;;;;;32.02;6.20;96416.22;6371254;28;20396;-65
2022/05/04 10:33:33;;;;;;;;;;;;;;;30.58;7.20;96406.25;6370661;28;20006;-65
2022/05/04 10:36:37;;;;;;;;;;;;;;;30.13;7.32;96404.09;6370864;28;20304;-65
2022/05/04 10:39:39;;;;;;;;;;;;;;;30.18;7.08;96398.81;6369830;28;19923;-65
2022/05/04 10:42:59;;;;;;;;;;;;;;;30.75;6.81;96411.78;6370260;28;20380;-65
2022/05/04 10:46:03;;;;;;;;;;;;;;;31.28;6.77;96395.25;6353089;28;19923;-65
2022/05/04 10:49:08;;;;;;;;;;;;;;;31.65;6.48;96394.88;6370125;28;19926;-64
2022/05/04 10:52:09;;;;;;;;;;;;;;;31.03;7.11;96392.03;6370102;28;20384;-65
2022/05/04 10:55:11;;;;;;;;;;;;;;;29.78;7.89;96394.03;6370363;28;19926;-64
2022/05/04 10:58:29;;;;;;;;;;;;;;;28.55;8.55;96371.63;6370916;28;20296;-65
2022/05/04 11:01:36;;;;;;;;;;;;;;;27.42;9.19;96371.72;6370779;28;20029;-65
2022/05/04 11:04:41;;;;;;;;;;;;;;;26.67;9.66;96371.44;6370073;28;19923;-65
2022/05/04 11:07:45;;;;;;;;;;;;;;;26.38;9.69;96358.25;6371227;28;19923;-65
2022/05/04 11:10:48;;;;;;;;;;;;;;;26.36;9.78;96363.00;6370122;28;20395;-64
2022/05/04 11:13:51;;;;;;;;;;;;;;;26.18;10.27;96376.31;6373074;27;19923;-65
2022/05/04 11:16:52;;;;;;;;;;;;;;;25.62;10.51;96344.38;6375514;27;20012;-63
2022/05/04 11:19:56;;;;;;;;;;;;;;;25.09;10.74;96372.88;6375314;27;19977;-65
2022/05/04 11:22:58;;;;;;;;;;;;;;;24.51;10.92;96363.53;6374487;27;20277;-63
2022/05/04 11:25:59;;;;;;;;;;;;;;;24.19;11.17;96345.13;6373955;27;19930;-64
2022/05/04 11:29:13;;;;;;;;;;;;;;;24.20;11.60;96359.38;6375256;27;19989;-64
2022/05/04 11:32:19;;;;;;;;;;;;;;;24.03;11.50;96353.50;6374015;27;20303;-65
2022/05/04 11:35:20;;;;;;;;;;;;;;;24.56;11.30;96339.56;6374016;27;19926;-65
2022/05/04 11:38:23;;;;;;;;;;;;;;;25.18;10.99;96351.16;6374862;27;19923;-65
2022/05/04 11:41:29;;;;;;;;;;;;;;;25.02;10.89;96339.69;6375198;27;20022;-64
2022/05/04 11:44:30;;;;;;;;;;;;;;;24.75;11.27;96337.97;6374011;27;19923;-64
2022/05/04 11:47:31;;;;;;;;;;;;;;;24.45;11.27;96353.56;6373499;27;19931;-64
2022/05/04 11:50:32;;;;;;;;;;;;;;;23.65;11.85;96335.00;6374483;27;19923;-65
2022/05/04 11:53:37;;;;;;;;;;;;;;;22.44;12.95;96333.09;6355510;27;20346;-64
2022/05/04 11:56:40;;;;;;;;;;;;;;;21.97;13.26;96319.88;6374293;27;19923;-64
2022/05/04 11:59:41;;;;;;;;;;;;;;;22.18;13.27;96326.38;6373958;27;19945;-64
2022/05/04 12:02:42;;;;;;;;;;;;;;;21.88;13.34;96329.03;6374313;27;20319;-65
2022/05/04 12:05:46;;;;;;;;;;;;;;;20.98;14.21;96313.72;6373927;27;20444;-64
2022/05/04 12:08:49;;;;;;;;;;;;;;;20.45;14.49;96310.00;6372764;27;19930;-64
2022/05/04 12:11:53;;;;;;;;;;;;;;;19.77;14.88;96310.59;6373852;27;19930;-64
2022/05/04 12:15:00;;;;;;;;;;;;;;;19.86;14.97;96310.38;6355132;27;19924;-64
2022/05/04 12:18:02;;;;;;;;;;;;;;;19.79;15.38;96303.22;6373740;27;19930;-64
2022/05/04 12:21:11;;;;;;;;;;;;;;;19.81;15.12;96315.38;6373697;27;20304;-65
2022/05/04 12:24:13;;;;;;;;;;;;;;;19.75;15.26;96294.72;6372447;27;19923;-66
2022/05/04 12:27:17;;;;;;;;;;;;;;;20.43;14.78;96295.97;6373562;27;19923;-65
2022/05/04 12:33:45;;;;;;;;;;;;;;;21.28;14.37;96297.75;6372276;27;19924;-69
2022/05/04 12:36:49;;;;;;;;;;;;;;;21.49;13.98;96297.94;6372672;27;19972;-64
2022/05/04 12:39:52;;;;;;;;;;;;;;;21.36;14.11;96295.00;6373038;27;19924;-66
2022/05/04 12:42:54;;;;;;;;;;;;;;;21.40;13.94;96292.81;6371934;27;20040;-65
2022/05/04 12:45:55;;;;;;;;;;;;;;;21.16;14.09;96289.31;6371819;27;19923;-65
2022/05/04 12:48:59;;;;;;;;;;;;;;;20.67;14.30;96275.50;6373120;27;19946;-67
2022/05/04 12:52:00;;;;;;;;;;;;;;;20.61;14.47;96288.56;6371910;27;20451;-65
2022/05/04 12:55:06;;;;;;;;;;;;;;;20.27;14.85;96285.34;6372771;27;19949;-65
2022/05/04 12:58:08;;;;;;;;;;;;;;;19.83;15.11;96283.19;6371723;27;20436;-65
2022/05/04 13:01:12;;;;;;;;;;;;;;;19.54;15.49;96279.25;6372370;27;20059;-65
2022/05/04 13:04:17;;;;;;;;;;;;;;;19.17;15.94;96277.13;6371145;27;20334;-65
2022/05/04 13:07:21;;;;;;;;;;;;;;;19.00;15.99;96271.78;6372630;27;19923;-65
2022/05/04 13:10:25;;;;;;;;;;;;;;;18.79;16.26;96269.59;6372593;27;19924;-65
2022/05/04 13:13:26;;;;;;;;;;;;;;;18.88;16.39;96272.25;6371724;27;19934;-65
2022/05/04 13:16:27;;;;;;;;;;;;;;;18.97;16.30;96273.94;6371711;27;20308;-65
2022/05/04 13:19:31;;;;;;;;;;;;;;;18.54;16.42;96275.84;6372248;27;20002;-65
2022/05/04 13:22:32;;;;;;;;;;;;;;;18.34;16.88;96270.84;6371449;27;19945;-64
2022/05/04 13:25:36;;;;;;;;;;;;;;;18.28;16.94;96265.31;6371999;27;20400;-65
2022/05/04 13:28:37;;;;;;;;;;;;;;;18.24;17.34;96259.47;6370998;27;19923;-64
2022/05/04 13:31:39;;;;;;;;;;;;;;;18.22;17.11;96263.28;6371759;27;19929;-65
2022/05/04 13:34:40;;;;;;;;;;;;;;;18.46;17.10;96274.03;6370704;27;19924;-66
2022/05/04 13:37:44;;;;;;;;;;;;;;;18.26;17.04;96262.81;6371392;27;20396;-63
2022/05/04 13:40:45;;;;;;;;;;;;;;;18.04;17.51;96260.75;6370529;27;19991;-65
2022/05/04 13:43:46;;;;;;;;;;;;;;;18.04;17.41;96261.56;6370850;27;20396;-64
2022/05/04 13:46:47;;;;;;;;;;;;;;;17.94;17.50;96255.53;6370696;27;19930;-64
2022/05/04 13:49:51;;;;;;;;;;;;;;;17.71;17.87;96252.56;6371537;27;19924;-65
2022/05/04 13:56:14;;;;;;;;;;;;;;;17.52;18.19;96250.97;6370616;27;19924;-65
2022/05/04 13:59:17;;;;;;;;;;;;;;;17.36;18.33;96250.91;6371490;27;20309;-64
2022/05/04 14:02:21;;;;;;;;;;;;;;;17.34;18.33;96255.53;6371635;27;19937;-65
2022/05/04 14:05:24;;;;;;;;;;;;;;;17.11;18.68;96255.22;6371221;27;20399;-66
2022/05/04 14:08:28;;;;;;;;;;;;;;;17.18;18.56;96253.59;6371385;27;20304;-67
2022/05/04 14:11:33;;;;;;;;;;;;;;;17.02;18.71;96252.50;6371216;27;19924;-66
2022/05/04 14:17:56;;;;;;;;;;;;;;;16.55;19.30;96250.06;6370437;28;20040;-65
2022/05/04 14:21:01;;;;;;;;;;;;;;;16.39;19.46;96249.94;6370348;28;19931;-66
2022/05/04 14:24:05;;;;;;;;;;;;;;;16.25;19.79;96247.75;6351782;28;19958;-67
2022/05/04 14:27:11;;;;;;;;;;;;;;;16.19;19.84;96251.00;6371440;28;19931;-65
2022/05/04 14:30:16;;;;;;;;;;;;;;;16.08;20.09;96258.22;6371565;28;19924;-64
2022/05/04 14:33:18;;;;;;;;;;;;;;;16.11;20.18;96252.63;6370041;28;19923;-65
2022/05/04 14:36:19;;;;;;;;;;;;;;;15.89;20.42;96255.66;6370219;28;19923;-64
2022/05/04 14:39:20;;;;;;;;;;;;;;;15.79;20.54;96255.69;6370058;28;20451;-64
2022/05/04 14:42:21;;;;;;;;;;;;;;;15.58;20.73;96263.88;6370486;28;19923;-67
2022/05/04 14:45:25;;;;;;;;;;;;;;;15.52;20.80;96256.50;6369971;28;19923;-64
2022/05/04 14:48:26;;;;;;;;;;;;;;;15.21;21.03;96254.06;6374554;27;20407;-64
2022/05/04 14:51:27;;;;;;;;;;;;;;;15.38;21.31;96259.59;6375442;27;19924;-64
2022/05/04 14:54:29;;;;;;;;;;;;;;;15.02;21.52;96262.06;6375415;27;19927;-64
2022/05/04 14:57:30;;;;;;;;;;;;;;;14.85;21.66;96263.59;6375970;27;19929;-68
2022/05/04 15:00:31;;;;;;;;;;;;;;;14.79;21.76;96253.56;6374810;27;19930;-65
2022/05/04 15:06:54;;;;;;;;;;;;;;;14.68;22.20;96270.44;6374475;27;19924;-64
2022/05/04 15:09:55;;;;;;;;;;;;;;;14.42;22.42;96266.66;6374437;27;20428;-64
2022/05/04 15:12:56;;;;;;;;;;;;;;;14.25;22.79;96270.81;6375812;27;19923;-64
2022/05/04 15:16:02;;;;;;;;;;;;;;;14.10;22.95;96279.13;6375373;27;19931;-65
2022/05/04 15:19:03;;;;;;;;;;;;;;;14.02;23.24;96275.50;6374202;27;19923;-65
2022/05/04 15:22:07;;;;;;;;;;;;;;;13.89;23.29;96275.72;6375470;27;20320;-65
2022/05/04 15:25:08;;;;;;;;;;;;;;;13.74;23.50;96277.91;6374605;27;19923;-64
2022/05/04 15:28:09;;;;;;;;;;;;;;;13.51;23.90;96281.72;6374531;27;19930;-64
2022/05/04 15:31:13;;;;;;;;;;;;;;;13.64;23.86;96287.59;6356334;27;20399;-64
2022/05/04 15:34:19;;;;;;;;;;;;;;;13.33;24.30;96284.94;6375043;27;19927;-64
2022/05/04 15:37:21;;;;;;;;;;;;;;;13.20;24.25;96289.56;6374103;27;19934;-64
2022/05/04 15:40:23;;;;;;;;;;;;;;;13.22;24.57;96290.28;6374546;27;19929;-65
2022/05/04 15:43:24;;;;;;;;;;;;;;;13.02;24.91;96292.81;6374654;27;19923;-67
2022/05/04 15:46:25;;;;;;;;;;;;;;;12.97;25.09;96295.00;6355550;27;19938;-65
2022/05/04 15:49:26;;;;;;;;;;;;;;;12.68;25.39;96296.56;6374024;27;19923;-65
2022/05/04 15:52:32;;;;;;;;;;;;;;;12.44;25.47;96292.34;6375049;27;20300;-65
2022/05/04 15:55:38;;;;;;;;;;;;;;;12.48;25.61;96300.84;6374677;27;19923;-65
2022/05/04 15:58:41;;;;;;;;;;;;;;;12.42;25.65;96298.69;6373919;27;19924;-65
2022/05/04 16:01:45;;;;;;;;;;;;;;;12.27;25.82;96295.50;6374213;27;19923;-64
2022/05/04 16:04:51;;;;;;;;;;;;;;;12.01;26.26;96294.97;6374236;27;19980;-64
2022/05/04 16:07:55;;;;;;;;;;;;;;;12.15;26.42;96301.78;6374254;27;19928;-65
2022/05/04 16:10:56;;;;;;;;;;;;;;;11.94;26.44;96309.59;6373760;27;19923;-64
2022/05/04 16:14:00;;;;;;;;;;;;;;;11.93;26.68;96303.47;6374238;27;19924;-64
2022/05/04 16:23:44;;;;;;;;;;;;;;;11.50;27.54;96298.91;6372899;27;19923;-65
2022/05/04 16:26:47;;;;;;;;;;;;;;;11.65;27.44;96300.34;6372972;27;19924;-65
2022/05/04 16:29:48;;;;;;;;;;;;;;;11.55;27.53;96304.69;6373176;27;19923;-64
2022/05/04 16:32:54;;;;;;;;;;;;;;;11.43;27.55;96297.72;6373771;27;20303;-65
2022/05/04 16:35:55;;;;;;;;;;;;;;;11.43;27.56;96311.72;6373867;27;19923;-66
2022/05/04 16:38:59;;;;;;;;;;;;;;;11.30;27.70;96304.91;6373660;27;19923;-64
2022/05/04 16:42:00;;;;;;;;;;;;;;;11.31;27.83;96311.84;6373864;27;20278;-66
2022/05/04 16:45:01;;;;;;;;;;;;;;;11.56;27.80;96303.72;6373525;27;19935;-66
2022/05/04 16:48:04;;;;;;;;;;;;;;;11.41;27.71;96307.53;6373071;27;19923;-65
2022/05/04 16:51:05;;;;;;;;;;;;;;;11.37;28.08;96306.09;6373274;27;19931;-64
2022/05/04 16:54:06;;;;;;;;;;;;;;;11.47;28.20;96312.34;6372160;27;20009;-65
2022/05/04 16:57:10;;;;;;;;;;;;;;;11.42;28.02;96303.94;6372389;27;19924;-67